createdAt,value
2022-08-28T00:01:59.907Z,3.13
2022-08-28T00:04:26.863Z,2.57
2022-08-28T00:06:53.283Z,2.60
2022-08-28T00:09:19.817Z,2.83
2022-08-28T00:11:47.133Z,2.90
2022-08-28T00:14:14.450Z,2.40
2022-08-28T00:16:41.265Z,3.17
2022-08-28T00:19:07.664Z,3.20
2022-08-28T00:21:34.131Z,3.47
2022-08-28T00:24:00.741Z,3.43
2022-08-28T00:26:45.580Z,2.87
2022-08-28T00:29:12.205Z,3.77
2022-08-28T00:31:39.445Z,3.10
2022-08-28T00:34:08.278Z,3.50
2022-08-28T00:36:34.967Z,3.07
2022-08-28T00:39:01.424Z,3.80
2022-08-28T00:41:31.227Z,3.20
2022-08-28T00:44:18.120Z,3.30
2022-08-28T00:46:46.779Z,3.30
2022-08-28T00:49:16.363Z,3.30
2022-08-28T00:52:02.241Z,3.27
2022-08-28T00:54:32.957Z,2.93
2022-08-28T00:56:59.914Z,3.20
2022-08-28T00:59:27.718Z,2.73
2022-08-28T01:01:57.018Z,4.17
2022-08-28T01:04:26.986Z,3.17
2022-08-28T01:06:54.643Z,3.70
2022-08-28T01:09:22.982Z,3.13
2022-08-28T01:11:52.994Z,3.33
2022-08-28T01:14:23.043Z,3.50
2022-08-28T01:16:55.362Z,3.80
2022-08-28T01:19:33.179Z,3.40
2022-08-28T01:22:02.966Z,3.80
2022-08-28T01:24:30.614Z,3.53
2022-08-28T01:26:57.088Z,3.50
2022-08-28T01:29:23.504Z,3.60
2022-08-28T01:31:49.874Z,3.57
2022-08-28T01:34:16.384Z,2.67
2022-08-28T01:36:42.955Z,3.03
2022-08-28T01:39:12.469Z,4.60
2022-08-28T01:41:42.250Z,2.97
2022-08-28T01:44:09.574Z,3.10
2022-08-28T01:46:36.201Z,3.37
2022-08-28T01:49:02.726Z,3.50
2022-08-28T01:51:29.258Z,3.83
2022-08-28T01:54:01.586Z,3.13
2022-08-28T01:56:29.747Z,3.20
2022-08-28T01:58:56.149Z,3.27
2022-08-28T02:01:22.511Z,2.93
2022-08-28T02:03:49.674Z,3.63
2022-08-28T02:06:16.756Z,3.60
2022-08-28T02:08:43.143Z,3.77
2022-08-28T02:11:09.987Z,2.93
2022-08-28T02:13:36.985Z,3.40
2022-08-28T02:16:06.226Z,3.80
2022-08-28T02:18:32.994Z,3.60
2022-08-28T02:20:59.330Z,2.90
2022-08-28T02:23:25.660Z,3.63
2022-08-28T02:25:52.014Z,4.07
2022-08-28T02:28:18.323Z,3.33
2022-08-28T02:30:44.802Z,4.03
2022-08-28T02:33:11.371Z,3.13
2022-08-28T02:35:40.134Z,3.23
2022-08-28T02:38:06.515Z,3.33
2022-08-28T02:40:33.083Z,2.60
2022-08-28T02:43:00.162Z,3.80
2022-08-28T02:45:26.571Z,3.67
2022-08-28T02:47:54.286Z,3.13
2022-08-28T02:50:21.735Z,3.67
2022-08-28T02:52:48.163Z,3.50
2022-08-28T02:55:17.811Z,3.40
2022-08-28T02:57:45.643Z,3.50
2022-08-28T03:00:15.921Z,3.80
2022-08-28T03:02:42.575Z,3.63
2022-08-28T03:05:10.009Z,3.23
2022-08-28T03:07:36.385Z,3.80
2022-08-28T03:10:04.249Z,3.23
2022-08-28T03:12:30.625Z,3.63
2022-08-28T03:14:57.106Z,4.23
2022-08-28T03:17:23.535Z,4.53
2022-08-28T03:19:50.116Z,3.53
2022-08-28T03:22:17.833Z,4.47
2022-08-28T03:24:44.862Z,4.10
2022-08-28T03:27:11.189Z,4.80
2022-08-28T03:29:37.593Z,4.00
2022-08-28T03:32:04.066Z,4.50
2022-08-28T03:34:30.471Z,4.30
2022-08-28T03:36:56.934Z,3.80
2022-08-28T03:39:23.370Z,3.77
2022-08-28T03:41:49.726Z,3.70
2022-08-28T03:44:16.603Z,3.67
2022-08-28T03:46:42.990Z,3.77
2022-08-28T03:49:09.377Z,3.63
2022-08-28T03:51:35.918Z,4.37
2022-08-28T03:54:04.217Z,5.00
2022-08-28T03:56:30.629Z,4.03
2022-08-28T03:59:00.824Z,3.97
2022-08-28T04:01:28.000Z,3.27
2022-08-28T04:03:54.465Z,3.80
2022-08-28T04:06:21.093Z,4.33
2022-08-28T04:08:48.075Z,3.83
2022-08-28T04:11:14.424Z,4.00
2022-08-28T04:13:41.884Z,4.37
2022-08-28T04:16:11.046Z,4.20
2022-08-28T04:18:40.348Z,3.87
2022-08-28T04:21:16.313Z,3.60
2022-08-28T04:23:44.941Z,3.47
2022-08-28T04:26:17.438Z,3.70
2022-08-28T04:28:44.082Z,4.13
2022-08-28T04:31:10.969Z,4.30
2022-08-28T04:33:38.150Z,4.33
2022-08-28T04:36:15.463Z,4.33
2022-08-28T04:38:44.064Z,3.93
2022-08-28T04:41:13.602Z,4.40
2022-08-28T04:43:40.160Z,4.13
2022-08-28T04:46:08.613Z,3.90
2022-08-28T04:48:36.177Z,3.63
2022-08-28T04:51:04.642Z,3.80
2022-08-28T04:53:31.053Z,3.47
2022-08-28T04:55:58.974Z,3.33
2022-08-28T04:58:27.634Z,3.87
2022-08-28T05:00:54.544Z,3.23
2022-08-28T05:03:21.363Z,4.00
2022-08-28T05:05:51.855Z,3.13
2022-08-28T05:08:18.900Z,3.43
2022-08-28T05:10:46.960Z,3.20
2022-08-28T05:13:15.996Z,3.60
2022-08-28T05:15:44.439Z,3.13
2022-08-28T05:18:13.999Z,3.93
2022-08-28T05:20:43.317Z,4.30
2022-08-28T05:23:10.289Z,4.73
2022-08-28T05:25:39.431Z,3.63
2022-08-28T05:28:12.020Z,3.20
2022-08-28T05:30:39.537Z,3.87
2022-08-28T05:33:07.964Z,4.10
2022-08-28T05:35:35.322Z,3.93
2022-08-28T05:38:01.739Z,4.07
2022-08-28T05:40:28.127Z,4.00
2022-08-28T05:42:54.570Z,4.20
2022-08-28T05:45:22.361Z,4.43
2022-08-28T05:47:48.965Z,4.23
2022-08-28T05:50:15.386Z,4.17
2022-08-28T05:52:43.039Z,3.90
2022-08-28T05:55:12.019Z,4.50
2022-08-28T05:57:42.015Z,4.30
2022-08-28T06:00:12.620Z,3.47
2022-08-28T06:02:39.563Z,4.67
2022-08-28T06:05:07.078Z,4.07
2022-08-28T06:07:33.823Z,4.17
2022-08-28T06:10:00.698Z,4.27
2022-08-28T06:12:27.142Z,4.03
2022-08-28T06:14:53.803Z,4.03
2022-08-28T06:17:23.846Z,4.33
2022-08-28T06:19:50.420Z,3.50
2022-08-28T06:22:17.025Z,3.40
2022-08-28T06:24:43.465Z,3.20
2022-08-28T06:27:09.806Z,3.23
2022-08-28T06:29:36.451Z,3.23
2022-08-28T06:32:04.779Z,3.77
2022-08-28T06:34:31.278Z,4.20
2022-08-28T06:36:57.777Z,3.07
2022-08-28T06:39:24.220Z,3.57
2022-08-28T06:41:50.693Z,2.70
2022-08-28T06:44:19.870Z,3.17
2022-08-28T06:46:52.472Z,3.00
2022-08-28T06:49:19.222Z,3.33
2022-08-28T06:51:45.724Z,3.63
2022-08-28T06:54:12.198Z,3.40
2022-08-28T06:56:38.580Z,4.00
2022-08-28T06:59:05.066Z,3.43
2022-08-28T07:01:34.806Z,3.40
2022-08-28T07:04:12.029Z,3.17
2022-08-28T07:06:39.801Z,3.20
2022-08-28T07:09:07.380Z,2.90
2022-08-28T07:11:34.483Z,2.93
2022-08-28T07:14:00.919Z,3.40
2022-08-28T07:16:30.359Z,3.20
2022-08-28T07:18:57.410Z,2.80
2022-08-28T07:21:23.741Z,2.90
2022-08-28T07:23:50.470Z,3.00
2022-08-28T07:26:20.486Z,3.10
2022-08-28T07:28:47.197Z,2.97
2022-08-28T07:31:15.667Z,2.67
2022-08-28T07:33:45.537Z,2.63
2022-08-28T07:36:22.069Z,2.83
2022-08-28T07:38:57.971Z,2.40
2022-08-28T07:41:28.225Z,3.23
2022-08-28T07:44:12.956Z,2.67
2022-08-28T07:46:40.288Z,3.07
2022-08-28T07:49:07.505Z,2.67
2022-08-28T07:51:34.318Z,3.20
2022-08-28T07:54:01.702Z,2.50
2022-08-28T07:56:29.928Z,3.37
2022-08-28T07:58:58.247Z,2.77
2022-08-28T08:01:25.597Z,2.30
2022-08-28T08:03:55.805Z,2.20
2022-08-28T08:06:33.863Z,1.90
2022-08-28T08:09:01.815Z,2.50
2022-08-28T08:11:28.168Z,2.00
2022-08-28T08:14:04.811Z,1.97
2022-08-28T08:16:35.470Z,1.70
2022-08-28T08:19:02.379Z,2.30
2022-08-28T08:21:30.520Z,2.23
2022-08-28T08:23:58.381Z,2.53
2022-08-28T08:26:25.530Z,2.20
2022-08-28T08:28:51.940Z,2.70
2022-08-28T08:31:19.680Z,1.60
2022-08-28T08:33:48.730Z,2.83
2022-08-28T08:36:17.831Z,1.83
2022-08-28T08:38:44.546Z,1.90
2022-08-28T08:41:23.011Z,2.37
2022-08-28T08:43:56.742Z,2.10
2022-08-28T08:46:30.932Z,2.20
2022-08-28T08:48:59.521Z,1.97
2022-08-28T08:51:30.950Z,2.10
2022-08-28T08:54:03.232Z,2.20
2022-08-28T08:56:34.796Z,2.40
2022-08-28T08:59:04.299Z,1.90
2022-08-28T09:01:32.992Z,2.50
2022-08-28T09:04:05.544Z,2.40
2022-08-28T09:07:00.671Z,2.67
2022-08-28T09:09:32.079Z,1.90
2022-08-28T09:12:03.542Z,1.53
2022-08-28T09:14:49.486Z,2.03
2022-08-28T09:17:19.265Z,2.23
2022-08-28T09:19:46.186Z,2.30
2022-08-28T09:22:13.060Z,1.73
2022-08-28T09:24:41.155Z,1.63
2022-08-28T09:27:21.476Z,1.80
2022-08-28T09:29:57.259Z,2.07
2022-08-28T09:32:41.358Z,1.87
2022-08-28T09:35:07.686Z,1.57
2022-08-28T09:37:36.907Z,1.70
2022-08-28T09:40:21.986Z,1.77
2022-08-28T09:43:23.126Z,2.17
2022-08-28T09:46:21.571Z,2.10
2022-08-28T09:48:53.531Z,1.70
2022-08-28T09:51:22.956Z,1.63
2022-08-28T09:53:52.361Z,1.40
2022-08-28T09:56:35.552Z,1.77
2022-08-28T09:59:06.806Z,2.03
2022-08-28T10:01:45.015Z,1.67
2022-08-28T10:04:29.501Z,2.10
2022-08-28T10:07:08.013Z,1.80
2022-08-28T10:09:40.462Z,2.13
2022-08-28T10:12:22.142Z,1.80
2022-08-28T10:15:08.194Z,1.50
2022-08-28T10:17:39.414Z,1.70
2022-08-28T10:20:05.843Z,1.50
2022-08-28T10:22:34.888Z,1.63
2022-08-28T10:25:38.975Z,1.57
2022-08-28T10:28:18.836Z,1.90
2022-08-28T10:31:11.447Z,2.43
2022-08-28T10:33:38.552Z,1.80
2022-08-28T10:36:07.878Z,1.83
2022-08-28T10:38:59.933Z,1.57
2022-08-28T10:41:38.430Z,1.73
2022-08-28T10:44:05.866Z,1.70
2022-08-28T10:46:41.524Z,1.63
2022-08-28T10:49:22.889Z,1.60
2022-08-28T10:51:51.995Z,1.30
2022-08-28T10:54:18.336Z,1.43
2022-08-28T10:56:56.442Z,1.90
2022-08-28T10:59:25.179Z,1.30
2022-08-28T11:01:52.296Z,1.53
2022-08-28T11:04:25.645Z,1.60
2022-08-28T11:07:15.120Z,1.70
2022-08-28T11:09:48.470Z,1.77
2022-08-28T11:12:18.420Z,1.50
2022-08-28T11:14:48.422Z,1.53
2022-08-28T11:17:30.443Z,1.50
2022-08-28T11:20:13.826Z,1.63
2022-08-28T11:22:52.926Z,1.70
2022-08-28T11:25:32.446Z,1.60
2022-08-28T11:28:11.427Z,1.40
2022-08-28T11:30:38.503Z,1.10
2022-08-28T11:33:08.819Z,1.43
2022-08-28T11:35:38.318Z,1.40
2022-08-28T11:38:04.855Z,1.40
2022-08-28T11:40:31.677Z,1.47
2022-08-28T11:43:16.690Z,1.60
2022-08-28T11:45:45.711Z,1.43
2022-08-28T11:48:28.226Z,1.33
2022-08-28T11:50:58.892Z,0.93
2022-08-28T11:53:54.616Z,1.20
2022-08-28T11:56:35.801Z,1.00
2022-08-28T11:59:09.960Z,1.27
2022-08-28T12:01:37.480Z,1.60
2022-08-28T12:04:08.152Z,1.20
2022-08-28T12:06:54.631Z,1.50
2022-08-28T12:09:39.894Z,1.20
2022-08-28T12:12:13.456Z,1.30
2022-08-28T12:14:39.812Z,1.20
2022-08-28T12:17:17.350Z,1.50
2022-08-28T12:19:55.491Z,1.30
2022-08-28T12:22:39.514Z,1.00
2022-08-28T12:25:06.871Z,1.13
2022-08-28T12:27:38.350Z,1.23
2022-08-28T12:30:05.718Z,1.20
2022-08-28T12:32:36.694Z,1.10
2022-08-28T12:35:03.036Z,1.20
2022-08-28T12:37:39.682Z,1.20
2022-08-28T12:40:28.163Z,1.27
2022-08-28T12:43:00.038Z,1.20
2022-08-28T12:45:29.140Z,1.30
2022-08-28T12:47:58.050Z,1.13
2022-08-28T12:50:32.280Z,1.13
2022-08-28T12:53:03.267Z,1.00
2022-08-28T12:55:31.127Z,1.37
2022-08-28T12:57:57.550Z,1.00
2022-08-28T13:00:33.188Z,1.27
2022-08-28T13:02:59.920Z,1.30
2022-08-28T13:05:28.999Z,0.90
2022-08-28T13:07:56.998Z,1.07
2022-08-28T13:10:29.539Z,1.10
2022-08-28T13:13:03.263Z,1.07
2022-08-28T13:15:53.463Z,1.40
2022-08-28T13:18:34.848Z,1.20
2022-08-28T13:21:33.046Z,1.03
2022-08-28T13:24:21.042Z,1.30
2022-08-28T13:26:48.309Z,1.10
2022-08-28T13:29:21.791Z,1.10
2022-08-28T13:31:59.426Z,1.27
2022-08-28T13:34:29.123Z,1.20
2022-08-28T13:36:59.548Z,1.20
2022-08-28T13:39:29.214Z,1.10
2022-08-28T13:41:59.242Z,1.27
2022-08-28T13:44:34.086Z,1.17
2022-08-28T13:47:08.871Z,1.20
2022-08-28T13:49:35.550Z,1.00
2022-08-28T13:52:05.022Z,1.00
2022-08-28T13:54:31.810Z,1.03
2022-08-28T13:56:58.239Z,0.90
2022-08-28T13:59:24.620Z,1.13
2022-08-28T14:02:12.752Z,1.17
2022-08-28T14:04:39.660Z,1.10
2022-08-28T14:07:07.946Z,1.10
2022-08-28T14:09:34.966Z,1.00
2022-08-28T14:12:03.348Z,1.00
2022-08-28T14:14:29.679Z,1.10
2022-08-28T14:16:56.486Z,1.00
2022-08-28T14:19:23.535Z,1.30
2022-08-28T14:21:50.225Z,1.40
2022-08-28T14:24:17.622Z,1.30
2022-08-28T14:26:45.456Z,1.00
2022-08-28T14:29:13.007Z,1.07
2022-08-28T14:31:41.040Z,1.03
2022-08-28T14:34:09.306Z,1.10
2022-08-28T14:36:36.666Z,0.90
2022-08-28T14:39:06.185Z,1.03
2022-08-28T14:41:34.481Z,0.90
2022-08-28T14:44:00.902Z,1.10
2022-08-28T14:46:31.288Z,1.00
2022-08-28T14:49:00.453Z,0.90
2022-08-28T14:51:27.743Z,1.03
2022-08-28T14:53:54.254Z,0.90
2022-08-28T14:56:22.225Z,1.00
2022-08-28T14:58:48.707Z,1.20
2022-08-28T15:01:40.203Z,1.03
2022-08-28T15:04:10.961Z,0.90
2022-08-28T15:06:37.837Z,1.00
2022-08-28T15:09:05.093Z,1.17
2022-08-28T15:11:31.592Z,1.20
2022-08-28T15:14:00.637Z,0.93
2022-08-28T15:16:30.593Z,1.20
2022-08-28T15:18:58.045Z,1.23
2022-08-28T15:21:28.647Z,2.20
2022-08-28T15:23:57.676Z,0.90
2022-08-28T15:26:25.658Z,0.97
2022-08-28T15:28:55.675Z,1.00
2022-08-28T15:31:24.457Z,1.10
2022-08-28T15:33:51.234Z,1.10
2022-08-28T15:36:18.459Z,1.20
2022-08-28T15:39:03.397Z,1.47
2022-08-28T15:41:31.674Z,1.10
2022-08-28T15:44:00.763Z,1.03
2022-08-28T15:46:29.046Z,1.00
2022-08-28T15:48:55.816Z,1.07
2022-08-28T15:51:25.947Z,1.20
2022-08-28T15:53:52.833Z,1.20
2022-08-28T15:56:19.992Z,1.13
2022-08-28T15:58:46.664Z,1.30
2022-08-28T16:01:13.640Z,1.40
2022-08-28T16:03:40.186Z,1.00
2022-08-28T16:06:16.376Z,1.03
2022-08-28T16:08:43.283Z,1.17
2022-08-28T16:11:14.073Z,1.00
2022-08-28T16:13:40.780Z,1.20
2022-08-28T16:16:07.272Z,1.13
2022-08-28T16:18:33.699Z,1.20
2022-08-28T16:21:04.532Z,1.20
2022-08-28T16:23:32.393Z,1.17
2022-08-28T16:26:00.156Z,1.00
2022-08-28T16:28:27.118Z,1.10
2022-08-28T16:30:54.007Z,1.30
2022-08-28T16:33:22.130Z,1.30
2022-08-28T16:35:54.937Z,1.20
2022-08-28T16:38:23.374Z,1.17
2022-08-28T16:40:49.865Z,0.90
2022-08-28T16:43:16.541Z,1.00
2022-08-28T16:45:44.968Z,1.30
2022-08-28T16:48:12.669Z,1.30
2022-08-28T16:50:42.681Z,1.23
2022-08-28T16:53:10.070Z,1.17
2022-08-28T16:55:37.062Z,1.10
2022-08-28T16:58:04.372Z,1.00
2022-08-28T17:00:31.328Z,1.27
2022-08-28T17:02:57.828Z,0.97
2022-08-28T17:05:24.799Z,0.97
2022-08-28T17:07:51.989Z,1.43
2022-08-28T17:10:21.781Z,1.00
2022-08-28T17:12:48.483Z,0.93
2022-08-28T17:15:15.253Z,1.10
2022-08-28T17:17:42.078Z,1.10
2022-08-28T17:20:30.224Z,1.13
2022-08-28T17:22:56.691Z,1.30
2022-08-28T17:25:24.452Z,1.30
2022-08-28T17:27:51.330Z,1.10
2022-08-28T17:30:19.122Z,1.10
2022-08-28T17:32:46.102Z,1.30
2022-08-28T17:35:12.779Z,1.20
2022-08-28T17:37:40.678Z,1.30
2022-08-28T17:40:08.381Z,1.20
2022-08-28T17:42:36.444Z,1.43
2022-08-28T17:45:05.990Z,1.23
2022-08-28T17:47:32.513Z,1.20
2022-08-28T17:49:59.755Z,1.27
2022-08-28T17:52:26.238Z,1.47
2022-08-28T17:54:53.284Z,1.23
2022-08-28T17:57:19.834Z,1.40
2022-08-28T17:59:46.290Z,1.33
2022-08-28T18:02:16.442Z,1.13
2022-08-28T18:04:43.805Z,1.27
2022-08-28T18:07:10.214Z,1.30
2022-08-28T18:09:36.703Z,1.40
2022-08-28T18:12:03.650Z,1.33
2022-08-28T18:14:31.127Z,1.50
2022-08-28T18:16:57.695Z,1.20
2022-08-28T18:19:24.226Z,1.40
2022-08-28T18:21:50.735Z,1.40
2022-08-28T18:24:17.167Z,1.20
2022-08-28T18:26:43.779Z,1.10
2022-08-28T18:29:11.012Z,1.37
2022-08-28T18:31:37.573Z,1.73
2022-08-28T18:34:04.143Z,1.53
2022-08-28T18:36:30.558Z,1.60
2022-08-28T18:38:57.771Z,1.40
2022-08-28T18:41:37.658Z,1.50
2022-08-28T18:44:11.949Z,1.20
2022-08-28T18:46:38.460Z,1.33
2022-08-28T18:49:04.979Z,1.30
2022-08-28T18:51:32.568Z,1.33
2022-08-28T18:54:00.829Z,1.53
2022-08-28T18:56:30.355Z,1.30
2022-08-28T18:58:59.322Z,1.20
2022-08-28T19:01:26.010Z,1.40
2022-08-28T19:03:54.119Z,1.47
2022-08-28T19:06:20.741Z,1.40
2022-08-28T19:08:47.254Z,1.43
2022-08-28T19:11:14.281Z,1.40
2022-08-28T19:13:41.554Z,1.80
2022-08-28T19:16:08.515Z,1.80
2022-08-28T19:18:35.054Z,1.33
2022-08-28T19:21:09.031Z,1.67
2022-08-28T19:23:35.517Z,1.47
2022-08-28T19:26:02.550Z,1.87
2022-08-28T19:28:29.030Z,1.30
2022-08-28T19:30:55.522Z,1.43
2022-08-28T19:33:22.038Z,1.10
2022-08-28T19:35:48.575Z,1.27
2022-08-28T19:38:15.282Z,1.17
2022-08-28T19:40:42.005Z,1.87
2022-08-28T19:43:08.585Z,1.70
2022-08-28T19:45:41.897Z,1.60
2022-08-28T19:48:08.503Z,1.47
2022-08-28T19:50:34.910Z,1.53
2022-08-28T19:53:01.267Z,1.87
2022-08-28T19:55:28.591Z,1.73
2022-08-28T19:57:55.057Z,1.70
2022-08-28T20:00:24.680Z,1.90
2022-08-28T20:02:52.265Z,1.47
2022-08-28T20:05:20.039Z,1.30
2022-08-28T20:07:46.595Z,1.50
2022-08-28T20:10:13.316Z,1.70
2022-08-28T20:12:39.910Z,1.20
2022-08-28T20:15:16.104Z,1.63
2022-08-28T20:17:43.700Z,1.87
2022-08-28T20:20:11.662Z,1.10
2022-08-28T20:22:39.233Z,1.30
2022-08-28T20:25:07.314Z,1.10
2022-08-28T20:27:33.875Z,1.47
2022-08-28T20:30:09.330Z,1.20
2022-08-28T20:32:40.290Z,1.20
2022-08-28T20:35:09.793Z,1.37
2022-08-28T20:37:45.088Z,1.50
2022-08-28T20:40:18.021Z,1.43
2022-08-28T20:42:45.785Z,1.57
2022-08-28T20:45:13.990Z,1.07
2022-08-28T20:47:40.594Z,0.90
2022-08-28T20:50:07.579Z,1.10
2022-08-28T20:52:34.067Z,1.27
2022-08-28T20:55:00.430Z,1.90
2022-08-28T20:57:26.921Z,1.53
2022-08-28T20:59:54.046Z,1.20
2022-08-28T21:02:24.606Z,1.40
2022-08-28T21:04:52.467Z,1.30
2022-08-28T21:07:21.497Z,1.60
2022-08-28T21:10:05.318Z,1.70
2022-08-28T21:12:34.480Z,1.67
2022-08-28T21:15:01.019Z,1.43
2022-08-28T21:17:29.711Z,1.13
2022-08-28T21:20:09.112Z,1.37
2022-08-28T21:22:37.174Z,1.20
2022-08-28T21:25:07.013Z,1.20
2022-08-28T21:27:33.525Z,1.23
2022-08-28T21:30:00.811Z,1.20
2022-08-28T21:32:29.309Z,1.30
2022-08-28T21:34:56.019Z,1.10
2022-08-28T21:37:23.180Z,1.30
2022-08-28T21:39:49.599Z,1.33
2022-08-28T21:42:16.060Z,1.50
2022-08-28T21:44:45.533Z,1.20
2022-08-28T21:47:18.415Z,1.70
2022-08-28T21:49:47.871Z,1.70
2022-08-28T21:52:14.275Z,1.87
2022-08-28T21:54:40.658Z,1.80
2022-08-28T21:57:07.085Z,1.43
2022-08-28T21:59:37.652Z,1.37
2022-08-28T22:02:04.859Z,1.50
2022-08-28T22:04:31.286Z,1.50
2022-08-28T22:06:57.693Z,1.83
2022-08-28T22:09:24.127Z,1.13
2022-08-28T22:11:50.532Z,1.53
2022-08-28T22:14:16.972Z,2.27
2022-08-28T22:16:44.709Z,1.83
2022-08-28T22:19:11.158Z,1.37
2022-08-28T22:21:56.246Z,1.50
2022-08-28T22:24:23.462Z,1.47
2022-08-28T22:26:50.071Z,1.47
2022-08-28T22:29:24.211Z,1.10
2022-08-28T22:31:50.728Z,1.10
2022-08-28T22:34:17.177Z,1.30
2022-08-28T22:36:43.625Z,1.60
2022-08-28T22:39:10.146Z,1.47
2022-08-28T22:41:37.335Z,1.40
2022-08-28T22:44:04.404Z,1.40
2022-08-28T22:46:30.840Z,1.63
2022-08-28T22:48:57.330Z,1.63
2022-08-28T22:51:23.629Z,1.90
2022-08-28T22:53:50.157Z,1.40
2022-08-28T22:56:17.687Z,2.07
2022-08-28T22:58:44.285Z,1.50
2022-08-28T23:01:12.792Z,1.43
2022-08-28T23:03:40.612Z,1.70
2022-08-28T23:06:07.432Z,1.10
2022-08-28T23:08:34.267Z,1.57
2022-08-28T23:11:01.306Z,1.20
2022-08-28T23:13:28.303Z,1.47
2022-08-28T23:15:54.846Z,1.40
2022-08-28T23:18:21.597Z,1.70
2022-08-28T23:20:50.728Z,2.07
2022-08-28T23:23:18.783Z,1.93
2022-08-28T23:25:45.500Z,1.87
2022-08-28T23:28:12.211Z,1.80
2022-08-28T23:30:39.131Z,1.50
2022-08-28T23:33:08.302Z,2.10
2022-08-28T23:35:35.990Z,1.70
2022-08-28T23:38:03.922Z,1.80
2022-08-28T23:40:33.756Z,1.30
2022-08-28T23:43:00.710Z,2.03
2022-08-28T23:45:27.431Z,1.97
2022-08-28T23:47:54.768Z,1.93
2022-08-28T23:50:23.394Z,1.77
2022-08-28T23:52:50.207Z,1.90
2022-08-28T23:55:19.605Z,1.90
2022-08-28T23:57:46.096Z,1.70
